sensor_id;sensor_type;location;lat;lon;timestamp;pressure;altitude;pressure_sealevel;temperature;humidity
39435;BME280;66825;51.880;-0.518;2023-02-28T00:00:32;102267.97;;;14.75;40.33
39435;BME280;66825;51.880;-0.518;2023-02-28T00:02:58;102316.09;;;14.91;40.25
39435;BME280;66825;51.880;-0.518;2023-02-28T00:05:25;102368.59;;;15.33;40.29
39435;BME280;66825;51.880;-0.518;2023-02-28T00:07:51;102363.16;;;15.33;40.29
39435;BME280;66825;51.880;-0.518;2023-02-28T00:10:28;102370.50;;;15.32;40.25
39435;BME280;66825;51.880;-0.518;2023-02-28T00:12:55;102376.38;;;15.29;40.30
39435;BME280;66825;51.880;-0.518;2023-02-28T00:15:22;102379.09;;;15.29;40.25
39435;BME280;66825;51.880;-0.518;2023-02-28T00:17:49;102383.72;;;15.29;40.21
39435;BME280;66825;51.880;-0.518;2023-02-28T00:20:14;102391.53;;;15.25;40.10
39435;BME280;66825;51.880;-0.518;2023-02-28T00:22:46;102340.28;;;15.05;40.32
39435;BME280;66825;51.880;-0.518;2023-02-28T00:25:17;102348.44;;;15.05;40.23
39435;BME280;66825;51.880;-0.518;2023-02-28T00:27:43;102385.03;;;15.26;40.35
39435;BME280;66825;51.880;-0.518;2023-02-28T00:30:12;102384.09;;;15.20;40.36
39435;BME280;66825;51.880;-0.518;2023-02-28T00:32:38;102367.31;;;15.12;40.58
39435;BME280;66825;51.880;-0.518;2023-02-28T00:35:04;102304.53;;;14.72;40.20
39435;BME280;66825;51.880;-0.518;2023-02-28T00:37:30;102391.97;;;15.22;40.38
39435;BME280;66825;51.880;-0.518;2023-02-28T00:39:56;102310.66;;;14.68;40.41
39435;BME280;66825;51.880;-0.518;2023-02-28T00:42:22;102316.94;;;14.68;40.28
39435;BME280;66825;51.880;-0.518;2023-02-28T00:44:48;102394.94;;;15.20;40.44
39435;BME280;66825;51.880;-0.518;2023-02-28T00:47:13;102391.41;;;15.20;40.31
39435;BME280;66825;51.880;-0.518;2023-02-28T00:49:39;102363.56;;;15.01;40.32
39435;BME280;66825;51.880;-0.518;2023-02-28T00:52:05;102272.63;;;14.44;40.52
39435;BME280;66825;51.880;-0.518;2023-02-28T00:54:31;102399.78;;;15.18;40.12
39435;BME280;66825;51.880;-0.518;2023-02-28T00:56:56;102397.31;;;15.17;40.37
39435;BME280;66825;51.880;-0.518;2023-02-28T00:59:21;102401.31;;;15.14;40.34
39435;BME280;66825;51.880;-0.518;2023-02-28T01:01:47;102377.69;;;15.03;40.28
39435;BME280;66825;51.880;-0.518;2023-02-28T01:04:13;102352.19;;;14.92;40.29
39435;BME280;66825;51.880;-0.518;2023-02-28T01:06:39;102412.19;;;15.14;40.25
39435;BME280;66825;51.880;-0.518;2023-02-28T01:09:06;102398.81;;;15.13;40.45
39435;BME280;66825;51.880;-0.518;2023-02-28T01:11:33;102313.34;;;14.56;40.29
39435;BME280;66825;51.880;-0.518;2023-02-28T01:13:59;102403.44;;;15.12;40.51
39435;BME280;66825;51.880;-0.518;2023-02-28T01:16:24;102401.78;;;15.11;40.27
39435;BME280;66825;51.880;-0.518;2023-02-28T01:18:50;102306.38;;;14.48;40.46
39435;BME280;66825;51.880;-0.518;2023-02-28T01:21:17;102404.97;;;15.08;40.48
39435;BME280;66825;51.880;-0.518;2023-02-28T01:23:43;102395.19;;;15.07;40.47
39435;BME280;66825;51.880;-0.518;2023-02-28T01:26:20;102406.84;;;15.07;40.44
39435;BME280;66825;51.880;-0.518;2023-02-28T01:28:45;102389.50;;;14.97;40.48
39435;BME280;66825;51.880;-0.518;2023-02-28T01:31:11;102314.88;;;14.52;40.32
39435;BME280;66825;51.880;-0.518;2023-02-28T01:33:37;102286.41;;;14.30;40.34
39435;BME280;66825;51.880;-0.518;2023-02-28T01:36:10;102356.22;;;14.77;40.32
39435;BME280;66825;51.880;-0.518;2023-02-28T01:38:36;102400.25;;;15.03;40.38
39435;BME280;66825;51.880;-0.518;2023-02-28T01:41:01;102406.50;;;15.04;40.39
39435;BME280;66825;51.880;-0.518;2023-02-28T01:46:10;102415.69;;;15.03;40.32
39435;BME280;66825;51.880;-0.518;2023-02-28T01:48:40;102210.66;;;13.81;40.47
39435;BME280;66825;51.880;-0.518;2023-02-28T01:51:11;102377.56;;;14.86;40.55
39435;BME280;66825;51.880;-0.518;2023-02-28T01:53:44;102274.84;;;14.23;40.51
39435;BME280;66825;51.880;-0.518;2023-02-28T01:56:12;102340.38;;;14.63;40.39
39435;BME280;66825;51.880;-0.518;2023-02-28T01:58:47;102395.53;;;14.99;40.53
39435;BME280;66825;51.880;-0.518;2023-02-28T02:01:13;102393.88;;;14.98;40.61
39435;BME280;66825;51.880;-0.518;2023-02-28T02:03:51;102391.41;;;14.96;40.36
39435;BME280;66825;51.880;-0.518;2023-02-28T02:06:22;102394.13;;;14.96;40.16
39435;BME280;66825;51.880;-0.518;2023-02-28T02:08:48;102392.47;;;14.95;40.56
39435;BME280;66825;51.880;-0.518;2023-02-28T02:11:18;102392.69;;;14.93;40.49
39435;BME280;66825;51.880;-0.518;2023-02-28T02:32:34;102387.97;;;14.89;40.37
39435;BME280;66825;51.880;-0.518;2023-02-28T02:40:22;102398.22;;;14.87;40.63
39435;BME280;66825;51.880;-0.518;2023-02-28T02:43:00;102304.94;;;14.34;40.43
39435;BME280;66825;51.880;-0.518;2023-02-28T02:48:26;102397.63;;;14.85;40.36
39435;BME280;66825;51.880;-0.518;2023-02-28T02:50:55;102396.81;;;14.84;40.35
39435;BME280;66825;51.880;-0.518;2023-02-28T02:53:30;102251.84;;;14.02;40.55
39435;BME280;66825;51.880;-0.518;2023-02-28T02:55:59;102383.94;;;14.80;40.39
39435;BME280;66825;51.880;-0.518;2023-02-28T02:58:31;102372.47;;;14.77;40.47
39435;BME280;66825;51.880;-0.518;2023-02-28T03:01:00;102378.28;;;14.81;40.47
39435;BME280;66825;51.880;-0.518;2023-02-28T03:03:28;102389.13;;;14.81;40.33
39435;BME280;66825;51.880;-0.518;2023-02-28T03:05:59;102373.09;;;14.80;40.53
39435;BME280;66825;51.880;-0.518;2023-02-28T03:08:25;102373.91;;;14.80;40.46
39435;BME280;66825;51.880;-0.518;2023-02-28T03:10:56;102257.75;;;14.11;40.40
39435;BME280;66825;51.880;-0.518;2023-02-28T03:19:06;102336.94;;;14.55;40.43
39435;BME280;66825;51.880;-0.518;2023-02-28T03:21:43;102307.50;;;14.28;40.61
39435;BME280;66825;51.880;-0.518;2023-02-28T03:24:18;102376.63;;;14.68;40.63
39435;BME280;66825;51.880;-0.518;2023-02-28T03:27:08;102378.03;;;14.71;40.41
39435;BME280;66825;51.880;-0.518;2023-02-28T03:29:46;102372.00;;;14.69;40.38
39435;BME280;66825;51.880;-0.518;2023-02-28T03:32:24;102373.19;;;14.73;40.60
39435;BME280;66825;51.880;-0.518;2023-02-28T03:35:07;102382.41;;;14.72;40.59
39435;BME280;66825;51.880;-0.518;2023-02-28T03:37:38;102371.63;;;14.65;40.40
39435;BME280;66825;51.880;-0.518;2023-02-28T03:40:08;102329.81;;;14.42;40.62
39435;BME280;66825;51.880;-0.518;2023-02-28T03:42:39;102374.47;;;14.70;40.46
39435;BME280;66825;51.880;-0.518;2023-02-28T03:45:22;102275.75;;;14.05;40.34
39435;BME280;66825;51.880;-0.518;2023-02-28T03:48:38;102293.72;;;14.18;40.55
39435;BME280;66825;51.880;-0.518;2023-02-28T03:50:45;102301.97;;;14.23;40.49
39435;BME280;66825;51.880;-0.518;2023-02-28T03:55:46;102266.19;;;14.03;40.69
39435;BME280;66825;51.880;-0.518;2023-02-28T04:01:19;102353.91;;;14.51;40.42
39435;BME280;66825;51.880;-0.518;2023-02-28T04:03:46;102359.81;;;14.59;40.55
39435;BME280;66825;51.880;-0.518;2023-02-28T04:06:20;102342.44;;;14.49;40.61
39435;BME280;66825;51.880;-0.518;2023-02-28T04:08:46;102366.06;;;14.60;40.46
39435;BME280;66825;51.880;-0.518;2023-02-28T04:11:22;102362.41;;;14.54;40.65
39435;BME280;66825;51.880;-0.518;2023-02-28T04:13:48;102386.25;;;14.64;40.64
39435;BME280;66825;51.880;-0.518;2023-02-28T04:16:13;102275.38;;;14.02;40.66
39435;BME280;66825;51.880;-0.518;2023-02-28T04:18:39;102324.00;;;14.27;40.49
39435;BME280;66825;51.880;-0.518;2023-02-28T04:21:06;102240.25;;;13.83;40.38
39435;BME280;66825;51.880;-0.518;2023-02-28T04:23:32;102377.50;;;14.62;40.45
39435;BME280;66825;51.880;-0.518;2023-02-28T04:25:57;102251.44;;;13.87;40.58
39435;BME280;66825;51.880;-0.518;2023-02-28T04:28:23;102370.78;;;14.53;40.64
39435;BME280;66825;51.880;-0.518;2023-02-28T04:30:55;102269.00;;;13.96;40.43
39435;BME280;66825;51.880;-0.518;2023-02-28T04:33:20;102395.69;;;14.61;40.48
39435;BME280;66825;51.880;-0.518;2023-02-28T04:35:46;102383.16;;;14.60;40.48
39435;BME280;66825;51.880;-0.518;2023-02-28T04:38:11;102390.50;;;14.60;40.57
39435;BME280;66825;51.880;-0.518;2023-02-28T04:40:36;102386.94;;;14.59;40.59
39435;BME280;66825;51.880;-0.518;2023-02-28T04:43:02;102361.91;;;14.45;40.67
39435;BME280;66825;51.880;-0.518;2023-02-28T04:45:28;102392.34;;;14.59;40.37
39435;BME280;66825;51.880;-0.518;2023-02-28T04:47:57;102388.47;;;14.55;40.72
39435;BME280;66825;51.880;-0.518;2023-02-28T04:50:23;102401.56;;;14.58;40.63
39435;BME280;66825;51.880;-0.518;2023-02-28T04:52:49;102388.47;;;14.55;40.54
39435;BME280;66825;51.880;-0.518;2023-02-28T04:55:14;102408.88;;;14.58;40.66
39435;BME280;66825;51.880;-0.518;2023-02-28T04:57:40;102403.69;;;14.56;40.59
39435;BME280;66825;51.880;-0.518;2023-02-28T05:00:09;102394.34;;;14.52;40.59
39435;BME280;66825;51.880;-0.518;2023-02-28T05:02:37;102400.69;;;14.46;40.30
39435;BME280;66825;51.880;-0.518;2023-02-28T05:05:03;102409.13;;;14.56;40.62
39435;BME280;66825;51.880;-0.518;2023-02-28T05:07:29;102407.47;;;14.55;40.70
39435;BME280;66825;51.880;-0.518;2023-02-28T05:09:54;102399.16;;;14.50;40.45
39435;BME280;66825;51.880;-0.518;2023-02-28T05:12:20;102385.34;;;14.40;40.71
39435;BME280;66825;51.880;-0.518;2023-02-28T05:14:45;102399.31;;;14.55;40.61
39435;BME280;66825;51.880;-0.518;2023-02-28T05:17:11;102293.94;;;13.86;40.31
39435;BME280;66825;51.880;-0.518;2023-02-28T05:19:36;102393.97;;;14.49;40.30
39435;BME280;66825;51.880;-0.518;2023-02-28T05:22:01;102393.00;;;14.43;40.72
39435;BME280;66825;51.880;-0.518;2023-02-28T05:24:27;102409.81;;;14.52;40.82
39435;BME280;66825;51.880;-0.518;2023-02-28T05:26:54;102407.09;;;14.52;40.78
39435;BME280;66825;51.880;-0.518;2023-02-28T05:29:20;102212.78;;;13.30;40.75
39435;BME280;66825;51.880;-0.518;2023-02-28T05:31:45;102295.00;;;13.85;40.77
39435;BME280;66825;51.880;-0.518;2023-02-28T05:34:11;102407.31;;;14.50;40.56
39435;BME280;66825;51.880;-0.518;2023-02-28T05:36:38;102412.97;;;14.49;40.64
39435;BME280;66825;51.880;-0.518;2023-02-28T05:39:07;102416.28;;;14.51;40.74
39435;BME280;66825;51.880;-0.518;2023-02-28T05:41:41;102412.97;;;14.49;40.75
39435;BME280;66825;51.880;-0.518;2023-02-28T05:44:06;102419.25;;;14.49;41.05
39435;BME280;66825;51.880;-0.518;2023-02-28T05:46:32;102241.53;;;13.31;40.56
39435;BME280;66825;51.880;-0.518;2023-02-28T05:48:57;102383.91;;;14.25;40.59
39435;BME280;66825;51.880;-0.518;2023-02-28T05:51:25;102433.84;;;14.48;40.40
39435;BME280;66825;51.880;-0.518;2023-02-28T05:53:51;102427.59;;;14.48;40.59
39435;BME280;66825;51.880;-0.518;2023-02-28T05:56:16;102397.72;;;14.36;40.40
39435;BME280;66825;51.880;-0.518;2023-02-28T05:58:41;102420.50;;;14.46;40.60
39435;BME280;66825;51.880;-0.518;2023-02-28T06:01:34;102420.50;;;14.46;40.61
39435;BME280;66825;51.880;-0.518;2023-02-28T06:04:00;102388.28;;;14.26;40.74
39435;BME280;66825;51.880;-0.518;2023-02-28T06:06:26;102398.19;;;14.33;40.40
39435;BME280;66825;51.880;-0.518;2023-02-28T06:08:52;102321.34;;;13.78;40.35
39435;BME280;66825;51.880;-0.518;2023-02-28T06:11:17;102422.28;;;14.41;40.83
39435;BME280;66825;51.880;-0.518;2023-02-28T06:13:45;102429.13;;;14.43;40.55
39435;BME280;66825;51.880;-0.518;2023-02-28T06:16:11;102427.22;;;14.44;40.73
39435;BME280;66825;51.880;-0.518;2023-02-28T06:18:37;102403.94;;;14.24;40.66
39435;BME280;66825;51.880;-0.518;2023-02-28T06:21:02;102412.81;;;14.32;40.75
39435;BME280;66825;51.880;-0.518;2023-02-28T06:23:28;102439.34;;;14.41;40.66
39435;BME280;66825;51.880;-0.518;2023-02-28T06:25:53;102433.94;;;14.41;40.38
39435;BME280;66825;51.880;-0.518;2023-02-28T06:28:22;102422.97;;;14.36;40.48
39435;BME280;66825;51.880;-0.518;2023-02-28T06:30:48;102418.59;;;14.35;40.63
39435;BME280;66825;51.880;-0.518;2023-02-28T06:33:13;102345.44;;;13.86;40.42
39435;BME280;66825;51.880;-0.518;2023-02-28T06:35:39;102431.47;;;14.40;40.69
39435;BME280;66825;51.880;-0.518;2023-02-28T06:38:04;102433.13;;;14.41;40.72
39435;BME280;66825;51.880;-0.518;2023-02-28T06:40:30;102407.31;;;14.20;40.46
39435;BME280;66825;51.880;-0.518;2023-02-28T06:42:59;102390.94;;;14.14;40.59
39435;BME280;66825;51.880;-0.518;2023-02-28T06:45:24;102330.41;;;13.72;40.75
39435;BME280;66825;51.880;-0.518;2023-02-28T06:47:51;102385.81;;;14.06;40.66
39435;BME280;66825;51.880;-0.518;2023-02-28T06:50:17;102395.63;;;14.07;40.58
39435;BME280;66825;51.880;-0.518;2023-02-28T06:52:46;102443.59;;;14.37;40.85
39435;BME280;66825;51.880;-0.518;2023-02-28T06:55:12;102417.72;;;14.23;40.48
39435;BME280;66825;51.880;-0.518;2023-02-28T06:57:38;102434.72;;;14.30;40.58
39435;BME280;66825;51.880;-0.518;2023-02-28T07:00:08;102445.56;;;14.30;40.42
39435;BME280;66825;51.880;-0.518;2023-02-28T07:02:37;102335.22;;;13.70;40.38
39435;BME280;66825;51.880;-0.518;2023-02-28T07:05:04;102396.78;;;14.11;40.44
39435;BME280;66825;51.880;-0.518;2023-02-28T07:07:30;102420.28;;;14.18;40.40
39435;BME280;66825;51.880;-0.518;2023-02-28T07:09:55;102438.84;;;14.33;40.49
39435;BME280;66825;51.880;-0.518;2023-02-28T07:12:21;102454.06;;;14.34;40.81
39435;BME280;66825;51.880;-0.518;2023-02-28T07:14:47;102337.72;;;13.71;40.80
39435;BME280;66825;51.880;-0.518;2023-02-28T07:17:12;102414.66;;;14.19;40.84
39435;BME280;66825;51.880;-0.518;2023-02-28T07:19:39;102452.41;;;14.33;40.61
39435;BME280;66825;51.880;-0.518;2023-02-28T07:22:05;102440.22;;;14.23;40.68
39435;BME280;66825;51.880;-0.518;2023-02-28T07:24:30;102445.56;;;14.30;40.67
39435;BME280;66825;51.880;-0.518;2023-02-28T07:26:56;102443.06;;;14.28;40.87
39435;BME280;66825;51.880;-0.518;2023-02-28T07:29:21;102445.34;;;14.32;40.50
39435;BME280;66825;51.880;-0.518;2023-02-28T07:31:47;102432.09;;;14.23;40.52
39435;BME280;66825;51.880;-0.518;2023-02-28T07:34:13;102451.56;;;14.32;40.71
39435;BME280;66825;51.880;-0.518;2023-02-28T07:36:38;102378.47;;;13.95;40.66
39435;BME280;66825;51.880;-0.518;2023-02-28T07:39:04;102427.03;;;14.27;40.82
39435;BME280;66825;51.880;-0.518;2023-02-28T07:41:30;102433.56;;;14.38;40.96
39435;BME280;66825;51.880;-0.518;2023-02-28T07:43:58;102440.34;;;14.47;40.97
39435;BME280;66825;51.880;-0.518;2023-02-28T07:46:25;102446.13;;;14.51;40.67
39435;BME280;66825;51.880;-0.518;2023-02-28T07:48:51;102446.25;;;14.56;40.73
39435;BME280;66825;51.880;-0.518;2023-02-28T07:51:16;102427.13;;;14.51;40.77
39435;BME280;66825;51.880;-0.518;2023-02-28T07:53:42;102395.84;;;14.36;40.64
39435;BME280;66825;51.880;-0.518;2023-02-28T07:56:08;102427.94;;;14.51;40.56
39435;BME280;66825;51.880;-0.518;2023-02-28T07:58:33;102452.22;;;14.76;40.93
39435;BME280;66825;51.880;-0.518;2023-02-28T08:01:10;102443.19;;;14.83;40.73
39435;BME280;66825;51.880;-0.518;2023-02-28T08:03:37;102359.00;;;14.28;40.64
39435;BME280;66825;51.880;-0.518;2023-02-28T08:06:04;102430.75;;;14.75;40.44
39435;BME280;66825;51.880;-0.518;2023-02-28T08:08:30;102455.69;;;14.96;40.61
39435;BME280;66825;51.880;-0.518;2023-02-28T08:11:03;102458.78;;;14.99;40.42
39435;BME280;66825;51.880;-0.518;2023-02-28T08:13:29;102375.16;;;14.54;40.38
39435;BME280;66825;51.880;-0.518;2023-02-28T08:15:55;102457.38;;;15.08;40.45
39435;BME280;66825;51.880;-0.518;2023-02-28T08:18:21;102443.81;;;15.08;40.40
39435;BME280;66825;51.880;-0.518;2023-02-28T08:20:47;102448.03;;;15.16;40.23
39435;BME280;66825;51.880;-0.518;2023-02-28T08:23:13;102455.38;;;15.28;40.05
39435;BME280;66825;51.880;-0.518;2023-02-28T08:25:38;102451.72;;;15.34;40.23
39435;BME280;66825;51.880;-0.518;2023-02-28T08:28:04;102433.41;;;15.29;40.10
39435;BME280;66825;51.880;-0.518;2023-02-28T08:30:29;102354.81;;;14.87;39.94
39435;BME280;66825;51.880;-0.518;2023-02-28T08:32:55;102446.66;;;15.49;40.00
39435;BME280;66825;51.880;-0.518;2023-02-28T08:35:21;102343.00;;;14.93;39.88
39435;BME280;66825;51.880;-0.518;2023-02-28T08:37:49;102413.69;;;15.46;39.86
39435;BME280;66825;51.880;-0.518;2023-02-28T08:40:16;102432.00;;;15.62;39.76
39435;BME280;66825;51.880;-0.518;2023-02-28T08:42:46;102423.50;;;15.59;39.75
39435;BME280;66825;51.880;-0.518;2023-02-28T08:45:13;102416.03;;;15.66;39.48
39435;BME280;66825;51.880;-0.518;2023-02-28T08:47:39;102393.88;;;15.45;39.72
39435;BME280;66825;51.880;-0.518;2023-02-28T08:50:05;102435.28;;;15.88;39.73
39435;BME280;66825;51.880;-0.518;2023-02-28T08:52:30;102345.69;;;15.40;39.48
39435;BME280;66825;51.880;-0.518;2023-02-28T08:54:56;102431.72;;;15.99;39.50
39435;BME280;66825;51.880;-0.518;2023-02-28T08:57:21;102412.81;;;15.93;39.57
39435;BME280;66825;51.880;-0.518;2023-02-28T08:59:47;102352.00;;;15.58;39.50
39435;BME280;66825;51.880;-0.518;2023-02-28T09:02:13;102420.94;;;16.04;39.41
39435;BME280;66825;51.880;-0.518;2023-02-28T09:04:40;102426.59;;;16.15;39.30
39435;BME280;66825;51.880;-0.518;2023-02-28T09:07:06;102420.72;;;16.23;39.09
39435;BME280;66825;51.880;-0.518;2023-02-28T09:09:31;102420.00;;;16.28;39.55
39435;BME280;66825;51.880;-0.518;2023-02-28T09:11:57;102420.34;;;16.31;39.69
39435;BME280;66825;51.880;-0.518;2023-02-28T09:14:22;102418.31;;;16.39;39.59
39435;BME280;66825;51.880;-0.518;2023-02-28T09:16:48;102396.78;;;16.37;40.68
39435;BME280;66825;51.880;-0.518;2023-02-28T09:19:14;102416.44;;;16.56;40.46
39435;BME280;66825;51.880;-0.518;2023-02-28T09:21:40;102245.59;;;15.61;40.18
39435;BME280;66825;51.880;-0.518;2023-02-28T09:24:06;102392.03;;;16.61;40.34
39435;BME280;66825;51.880;-0.518;2023-02-28T09:26:31;102387.44;;;16.62;40.40
39435;BME280;66825;51.880;-0.518;2023-02-28T09:28:57;102414.47;;;16.86;40.04
39435;BME280;66825;51.880;-0.518;2023-02-28T09:31:25;102391.22;;;16.78;40.32
39435;BME280;66825;51.880;-0.518;2023-02-28T09:33:53;102421.78;;;16.97;40.79
39435;BME280;66825;51.880;-0.518;2023-02-28T09:36:18;102332.97;;;16.45;40.88
39435;BME280;66825;51.880;-0.518;2023-02-28T09:38:44;102333.41;;;16.54;40.61
39435;BME280;66825;51.880;-0.518;2023-02-28T09:41:21;102406.91;;;17.05;40.48
39435;BME280;66825;51.880;-0.518;2023-02-28T09:43:50;102318.47;;;16.56;41.30
39435;BME280;66825;51.880;-0.518;2023-02-28T09:46:37;102421.66;;;17.26;41.38
39435;BME280;66825;51.880;-0.518;2023-02-28T09:49:15;102429.41;;;17.34;41.54
39435;BME280;66825;51.880;-0.518;2023-02-28T09:52:00;102403.41;;;17.26;41.50
39435;BME280;66825;51.880;-0.518;2023-02-28T09:54:30;102429.31;;;17.46;40.69
39435;BME280;66825;51.880;-0.518;2023-02-28T10:05:14;102431.78;;;17.70;41.60
39435;BME280;66825;51.880;-0.518;2023-02-28T10:08:02;102433.75;;;17.74;41.73
39435;BME280;66825;51.880;-0.518;2023-02-28T10:13:00;102416.34;;;17.75;40.49
39435;BME280;66825;51.880;-0.518;2023-02-28T10:15:30;102302.25;;;17.18;40.93
39435;BME280;66825;51.880;-0.518;2023-02-28T10:18:00;102431.91;;;17.97;40.38
39435;BME280;66825;51.880;-0.518;2023-02-28T10:20:28;102335.50;;;17.42;40.11
39435;BME280;66825;51.880;-0.518;2023-02-28T10:25:36;102412.94;;;18.07;39.69
39435;BME280;66825;51.880;-0.518;2023-02-28T10:28:12;102400.06;;;18.03;39.82
39435;BME280;66825;51.880;-0.518;2023-02-28T10:30:44;102385.31;;;17.99;42.21
39435;BME280;66825;51.880;-0.518;2023-02-28T10:33:29;102412.84;;;18.24;41.45
39435;BME280;66825;51.880;-0.518;2023-02-28T10:35:55;102420.25;;;18.29;41.01
39435;BME280;66825;51.880;-0.518;2023-02-28T10:38:44;102323.06;;;17.73;41.43
39435;BME280;66825;51.880;-0.518;2023-02-28T10:41:14;102364.78;;;17.96;40.67
39435;BME280;66825;51.880;-0.518;2023-02-28T10:43:41;102416.81;;;18.39;40.99
39435;BME280;66825;51.880;-0.518;2023-02-28T10:51:07;102398.50;;;18.39;40.09
39435;BME280;66825;51.880;-0.518;2023-02-28T10:53:39;102243.13;;;17.40;39.99
39435;BME280;66825;51.880;-0.518;2023-02-28T11:01:20;102395.06;;;18.49;40.25
39435;BME280;66825;51.880;-0.518;2023-02-28T11:03:47;102406.53;;;18.51;40.20
39435;BME280;66825;51.880;-0.518;2023-02-28T11:06:27;102408.19;;;18.52;40.79
39435;BME280;66825;51.880;-0.518;2023-02-28T11:08:57;102325.03;;;18.00;40.26
39435;BME280;66825;51.880;-0.518;2023-02-28T11:11:26;102405.22;;;18.54;40.44
39435;BME280;66825;51.880;-0.518;2023-02-28T11:14:00;102334.41;;;18.09;40.12
39435;BME280;66825;51.880;-0.518;2023-02-28T11:16:36;102379.41;;;18.39;39.92
39435;BME280;66825;51.880;-0.518;2023-02-28T11:19:04;102397.03;;;18.54;40.08
39435;BME280;66825;51.880;-0.518;2023-02-28T11:21:36;102306.72;;;17.96;40.19
39435;BME280;66825;51.880;-0.518;2023-02-28T11:24:31;102403.03;;;18.56;40.18
39435;BME280;66825;51.880;-0.518;2023-02-28T11:26:59;102355.03;;;18.28;40.17
39435;BME280;66825;51.880;-0.518;2023-02-28T11:29:35;102400.91;;;18.63;40.24
39435;BME280;66825;51.880;-0.518;2023-02-28T11:32:16;102400.41;;;18.66;40.11
39435;BME280;66825;51.880;-0.518;2023-02-28T11:34:42;102395.75;;;18.67;39.69
39435;BME280;66825;51.880;-0.518;2023-02-28T11:37:13;102390.59;;;18.70;39.85
39435;BME280;66825;51.880;-0.518;2023-02-28T11:39:39;102393.31;;;18.70;39.63
39435;BME280;66825;51.880;-0.518;2023-02-28T11:42:07;102392.53;;;18.70;39.56
39435;BME280;66825;51.880;-0.518;2023-02-28T11:50:50;102384.81;;;18.62;39.18
39435;BME280;66825;51.880;-0.518;2023-02-28T11:53:33;102377.97;;;18.59;39.23
39435;BME280;66825;51.880;-0.518;2023-02-28T12:06:48;102342.84;;;18.40;39.88
39435;BME280;66825;51.880;-0.518;2023-02-28T12:28:24;102329.69;;;18.65;39.69
39435;BME280;66825;51.880;-0.518;2023-02-28T12:31:00;102316.84;;;18.65;39.77
39435;BME280;66825;51.880;-0.518;2023-02-28T12:33:33;102297.97;;;18.58;39.61
39435;BME280;66825;51.880;-0.518;2023-02-28T12:36:05;102304.25;;;18.59;39.71
39435;BME280;66825;51.880;-0.518;2023-02-28T12:39:08;102283.47;;;18.53;39.58
39435;BME280;66825;51.880;-0.518;2023-02-28T12:41:42;102292.78;;;18.57;39.83
39435;BME280;66825;51.880;-0.518;2023-02-28T12:44:39;102262.41;;;18.48;40.11
39435;BME280;66825;51.880;-0.518;2023-02-28T12:47:13;102107.56;;;17.53;40.01
39435;BME280;66825;51.880;-0.518;2023-02-28T12:52:20;102274.25;;;18.64;40.27
39435;BME280;66825;51.880;-0.518;2023-02-28T12:58:03;102265.28;;;18.69;39.67
39435;BME280;66825;51.880;-0.518;2023-02-28T13:00:35;102164.47;;;18.09;39.71
39435;BME280;66825;51.880;-0.518;2023-02-28T13:10:56;102248.81;;;18.58;39.73
39435;BME280;66825;51.880;-0.518;2023-02-28T13:13:30;102219.25;;;18.40;39.68
39435;BME280;66825;51.880;-0.518;2023-02-28T13:16:09;102227.25;;;18.52;39.57
39435;BME280;66825;51.880;-0.518;2023-02-28T13:18:41;102126.09;;;17.88;39.59
39435;BME280;66825;51.880;-0.518;2023-02-28T13:21:21;102173.53;;;18.20;39.68
39435;BME280;66825;51.880;-0.518;2023-02-28T13:29:20;102118.28;;;17.97;39.61
39435;BME280;66825;51.880;-0.518;2023-02-28T13:34:42;102179.09;;;18.35;39.65
39435;BME280;66825;51.880;-0.518;2023-02-28T13:39:52;102217.09;;;18.47;40.37
39435;BME280;66825;51.880;-0.518;2023-02-28T13:58:16;102206.81;;;18.60;40.51
39435;BME280;66825;51.880;-0.518;2023-02-28T14:11:42;102182.28;;;18.70;40.16
39435;BME280;66825;51.880;-0.518;2023-02-28T14:17:03;102192.72;;;18.83;39.91
39435;BME280;66825;51.880;-0.518;2023-02-28T14:19:31;102162.09;;;18.71;39.86
39435;BME280;66825;51.880;-0.518;2023-02-28T14:27:36;102181.50;;;18.80;39.87
39435;BME280;66825;51.880;-0.518;2023-02-28T14:30:27;102089.81;;;18.20;39.86
39435;BME280;66825;51.880;-0.518;2023-02-28T14:33:16;102179.31;;;18.77;39.79
39435;BME280;66825;51.880;-0.518;2023-02-28T14:36:07;102172.47;;;18.74;39.89
39435;BME280;66825;51.880;-0.518;2023-02-28T14:38:45;102151.44;;;18.69;39.81
39435;BME280;66825;51.880;-0.518;2023-02-28T14:41:18;102168.34;;;18.66;39.97
39435;BME280;66825;51.880;-0.518;2023-02-28T14:43:50;102141.00;;;18.56;39.97
39435;BME280;66825;51.880;-0.518;2023-02-28T14:46:17;102173.25;;;18.69;39.93
39435;BME280;66825;51.880;-0.518;2023-02-28T14:48:48;102163.19;;;18.70;40.46
39435;BME280;66825;51.880;-0.518;2023-02-28T14:51:18;102157.72;;;18.70;39.86
39435;BME280;66825;51.880;-0.518;2023-02-28T14:53:48;102145.69;;;18.66;40.38
39435;BME280;66825;51.880;-0.518;2023-02-28T14:56:38;102148.19;;;18.72;40.18
39435;BME280;66825;51.880;-0.518;2023-02-28T14:59:06;102143.28;;;18.75;40.50
39435;BME280;66825;51.880;-0.518;2023-02-28T15:01:47;102138.06;;;18.73;40.57
39435;BME280;66825;51.880;-0.518;2023-02-28T15:04:23;102145.44;;;18.72;40.22
39435;BME280;66825;51.880;-0.518;2023-02-28T15:07:25;102072.69;;;18.35;40.27
39435;BME280;66825;51.880;-0.518;2023-02-28T15:10:27;102149.59;;;18.85;40.31
39435;BME280;66825;51.880;-0.518;2023-02-28T15:13:11;102149.03;;;18.88;39.96
39435;BME280;66825;51.880;-0.518;2023-02-28T15:15:58;102074.34;;;18.41;39.93
39435;BME280;66825;51.880;-0.518;2023-02-28T15:19:04;102154.78;;;18.87;39.74
39435;BME280;66825;51.880;-0.518;2023-02-28T15:21:34;102144.38;;;18.84;39.88
39435;BME280;66825;51.880;-0.518;2023-02-28T15:24:08;102146.59;;;18.82;39.86
39435;BME280;66825;51.880;-0.518;2023-02-28T15:26:39;102049.13;;;18.19;39.80
39435;BME280;66825;51.880;-0.518;2023-02-28T15:29:15;102147.94;;;18.79;40.00
39435;BME280;66825;51.880;-0.518;2023-02-28T15:31:48;102118.13;;;18.67;39.84
39435;BME280;66825;51.880;-0.518;2023-02-28T15:34:44;102126.31;;;18.67;39.98